sensor_id;sensor_type;location;lat;lon;timestamp;P1;durP1;ratioP1;P2;durP2;ratioP2
46455;SDS011;64052;47.466;9.094;2022-12-29T00:01:36;1.98;;;1.75;;
46455;SDS011;64052;47.466;9.094;2022-12-29T00:06:39;2.22;;;1.95;;
46455;SDS011;64052;47.466;9.094;2022-12-29T00:11:40;3.30;;;2.17;;
46455;SDS011;64052;47.466;9.094;2022-12-29T00:16:43;2.30;;;2.05;;
46455;SDS011;64052;47.466;9.094;2022-12-29T00:21:46;1.55;;;1.45;;
46455;SDS011;64052;47.466;9.094;2022-12-29T00:26:58;2.28;;;1.75;;
46455;SDS011;64052;47.466;9.094;2022-12-29T00:32:11;1.63;;;1.52;;
46455;SDS011;64052;47.466;9.094;2022-12-29T00:37:13;1.80;;;1.70;;
46455;SDS011;64052;47.466;9.094;2022-12-29T00:42:14;2.47;;;1.75;;
46455;SDS011;64052;47.466;9.094;2022-12-29T00:47:17;1.30;;;1.20;;
46455;SDS011;64052;47.466;9.094;2022-12-29T00:52:19;3.95;;;2.10;;
46455;SDS011;64052;47.466;9.094;2022-12-29T00:57:20;2.13;;;2.03;;
46455;SDS011;64052;47.466;9.094;2022-12-29T01:02:22;1.50;;;1.40;;
46455;SDS011;64052;47.466;9.094;2022-12-29T01:07:24;1.50;;;1.20;;
46455;SDS011;64052;47.466;9.094;2022-12-29T01:12:26;1.10;;;1.10;;
46455;SDS011;64052;47.466;9.094;2022-12-29T01:17:27;2.05;;;1.20;;
46455;SDS011;64052;47.466;9.094;2022-12-29T01:22:29;1.40;;;1.30;;
46455;SDS011;64052;47.466;9.094;2022-12-29T01:27:31;1.23;;;1.13;;
46455;SDS011;64052;47.466;9.094;2022-12-29T01:32:32;2.50;;;1.20;;
46455;SDS011;64052;47.466;9.094;2022-12-29T01:37:34;1.30;;;1.20;;
46455;SDS011;64052;47.466;9.094;2022-12-29T01:42:36;1.50;;;1.40;;
46455;SDS011;64052;47.466;9.094;2022-12-29T01:47:46;1.20;;;1.10;;
46455;SDS011;64052;47.466;9.094;2022-12-29T01:53:00;1.25;;;1.15;;
46455;SDS011;64052;47.466;9.094;2022-12-29T01:58:09;1.52;;;1.42;;
46455;SDS011;64052;47.466;9.094;2022-12-29T02:03:12;1.45;;;1.27;;
46455;SDS011;64052;47.466;9.094;2022-12-29T02:08:15;1.25;;;1.17;;
46455;SDS011;64052;47.466;9.094;2022-12-29T02:13:16;1.80;;;1.65;;
46455;SDS011;64052;47.466;9.094;2022-12-29T02:45:05;1.52;;;1.38;;
46455;SDS011;64052;47.466;9.094;2022-12-29T02:50:41;1.50;;;1.40;;
46455;SDS011;64052;47.466;9.094;2022-12-29T02:55:51;1.30;;;1.20;;
46455;SDS011;64052;47.466;9.094;2022-12-29T03:01:16;2.42;;;1.58;;
46455;SDS011;64052;47.466;9.094;2022-12-29T03:17:53;1.52;;;1.42;;
46455;SDS011;64052;47.466;9.094;2022-12-29T03:23:00;1.67;;;1.58;;
46455;SDS011;64052;47.466;9.094;2022-12-29T03:28:12;1.63;;;1.53;;
46455;SDS011;64052;47.466;9.094;2022-12-29T03:33:21;1.65;;;1.55;;
46455;SDS011;64052;47.466;9.094;2022-12-29T03:38:31;1.70;;;1.60;;
46455;SDS011;64052;47.466;9.094;2022-12-29T03:43:37;1.50;;;1.38;;
46455;SDS011;64052;47.466;9.094;2022-12-29T03:48:39;1.40;;;1.30;;
46455;SDS011;64052;47.466;9.094;2022-12-29T03:53:42;1.38;;;1.27;;
46455;SDS011;64052;47.466;9.094;2022-12-29T03:58:44;1.92;;;1.65;;
46455;SDS011;64052;47.466;9.094;2022-12-29T04:03:51;1.55;;;1.45;;
46455;SDS011;64052;47.466;9.094;2022-12-29T04:08:54;1.63;;;1.50;;
46455;SDS011;64052;47.466;9.094;2022-12-29T04:13:56;1.38;;;1.27;;
46455;SDS011;64052;47.466;9.094;2022-12-29T04:19:00;1.27;;;1.17;;
46455;SDS011;64052;47.466;9.094;2022-12-29T04:24:01;1.60;;;1.50;;
46455;SDS011;64052;47.466;9.094;2022-12-29T04:29:06;1.65;;;1.38;;
46455;SDS011;64052;47.466;9.094;2022-12-29T04:34:27;1.67;;;1.50;;
46455;SDS011;64052;47.466;9.094;2022-12-29T04:39:28;2.40;;;1.52;;
46455;SDS011;64052;47.466;9.094;2022-12-29T04:44:31;1.70;;;1.40;;
46455;SDS011;64052;47.466;9.094;2022-12-29T04:49:45;1.60;;;1.50;;
46455;SDS011;64052;47.466;9.094;2022-12-29T04:55:16;1.50;;;1.40;;
46455;SDS011;64052;47.466;9.094;2022-12-29T05:00:19;1.55;;;1.45;;
46455;SDS011;64052;47.466;9.094;2022-12-29T05:05:21;2.25;;;1.65;;
46455;SDS011;64052;47.466;9.094;2022-12-29T05:10:24;2.30;;;2.08;;
46455;SDS011;64052;47.466;9.094;2022-12-29T05:15:27;1.70;;;1.60;;
46455;SDS011;64052;47.466;9.094;2022-12-29T05:20:29;2.10;;;1.90;;
46455;SDS011;64052;47.466;9.094;2022-12-29T05:25:31;1.85;;;1.75;;
46455;SDS011;64052;47.466;9.094;2022-12-29T05:30:47;1.60;;;1.50;;
46455;SDS011;64052;47.466;9.094;2022-12-29T05:35:51;1.83;;;1.70;;
46455;SDS011;64052;47.466;9.094;2022-12-29T05:40:54;1.85;;;1.73;;
46455;SDS011;64052;47.466;9.094;2022-12-29T05:46:24;1.92;;;1.75;;
46455;SDS011;64052;47.466;9.094;2022-12-29T05:51:37;3.47;;;2.13;;
46455;SDS011;64052;47.466;9.094;2022-12-29T05:56:39;1.98;;;1.75;;
46455;SDS011;64052;47.466;9.094;2022-12-29T06:01:42;2.83;;;2.30;;
46455;SDS011;64052;47.466;9.094;2022-12-29T06:06:46;2.10;;;1.90;;
46455;SDS011;64052;47.466;9.094;2022-12-29T06:11:56;2.28;;;2.08;;
46455;SDS011;64052;47.466;9.094;2022-12-29T06:17:00;2.53;;;2.33;;
46455;SDS011;64052;47.466;9.094;2022-12-29T06:22:02;2.17;;;1.90;;
46455;SDS011;64052;47.466;9.094;2022-12-29T06:27:07;2.78;;;2.38;;
46455;SDS011;64052;47.466;9.094;2022-12-29T06:32:09;2.33;;;2.13;;
46455;SDS011;64052;47.466;9.094;2022-12-29T06:37:16;2.05;;;1.92;;
46455;SDS011;64052;47.466;9.094;2022-12-29T06:42:17;3.08;;;2.75;;
46455;SDS011;64052;47.466;9.094;2022-12-29T06:47:30;3.70;;;2.83;;
46455;SDS011;64052;47.466;9.094;2022-12-29T06:52:32;3.78;;;2.70;;
46455;SDS011;64052;47.466;9.094;2022-12-29T06:57:34;2.50;;;2.03;;
46455;SDS011;64052;47.466;9.094;2022-12-29T07:02:35;3.33;;;2.70;;
46455;SDS011;64052;47.466;9.094;2022-12-29T07:07:38;2.63;;;2.42;;
46455;SDS011;64052;47.466;9.094;2022-12-29T07:12:40;6.07;;;5.22;;
46455;SDS011;64052;47.466;9.094;2022-12-29T07:17:42;4.43;;;3.85;;
46455;SDS011;64052;47.466;9.094;2022-12-29T07:22:44;3.33;;;2.80;;
46455;SDS011;64052;47.466;9.094;2022-12-29T07:27:45;5.00;;;3.90;;
46455;SDS011;64052;47.466;9.094;2022-12-29T07:32:47;2.03;;;1.60;;
46455;SDS011;64052;47.466;9.094;2022-12-29T07:37:49;2.42;;;1.60;;
46455;SDS011;64052;47.466;9.094;2022-12-29T07:42:50;1.95;;;1.50;;
46455;SDS011;64052;47.466;9.094;2022-12-29T07:48:00;2.45;;;1.40;;
46455;SDS011;64052;47.466;9.094;2022-12-29T07:53:02;1.60;;;1.50;;
46455;SDS011;64052;47.466;9.094;2022-12-29T07:58:04;1.60;;;1.50;;
46455;SDS011;64052;47.466;9.094;2022-12-29T08:03:05;1.30;;;1.20;;
46455;SDS011;64052;47.466;9.094;2022-12-29T08:08:07;1.77;;;1.20;;
46455;SDS011;64052;47.466;9.094;2022-12-29T08:13:08;2.10;;;1.23;;
46455;SDS011;64052;47.466;9.094;2022-12-29T08:18:10;3.50;;;2.60;;
46455;SDS011;64052;47.466;9.094;2022-12-29T08:23:11;2.05;;;1.67;;
46455;SDS011;64052;47.466;9.094;2022-12-29T08:28:13;1.67;;;1.58;;
46455;SDS011;64052;47.466;9.094;2022-12-29T08:33:15;1.65;;;1.50;;
46455;SDS011;64052;47.466;9.094;2022-12-29T08:38:16;2.17;;;1.83;;
46455;SDS011;64052;47.466;9.094;2022-12-29T08:43:18;2.72;;;2.40;;
46455;SDS011;64052;47.466;9.094;2022-12-29T08:48:19;3.80;;;1.35;;
46455;SDS011;64052;47.466;9.094;2022-12-29T08:53:21;2.08;;;1.40;;
46455;SDS011;64052;47.466;9.094;2022-12-29T08:58:23;2.08;;;1.40;;
46455;SDS011;64052;47.466;9.094;2022-12-29T09:03:25;2.90;;;1.83;;
46455;SDS011;64052;47.466;9.094;2022-12-29T09:08:47;3.08;;;1.50;;
46455;SDS011;64052;47.466;9.094;2022-12-29T09:13:49;2.70;;;2.10;;
46455;SDS011;64052;47.466;9.094;2022-12-29T09:18:51;2.13;;;1.60;;
46455;SDS011;64052;47.466;9.094;2022-12-29T09:23:52;1.95;;;1.58;;
46455;SDS011;64052;47.466;9.094;2022-12-29T09:28:54;1.88;;;1.70;;
46455;SDS011;64052;47.466;9.094;2022-12-29T09:33:56;2.25;;;2.03;;
46455;SDS011;64052;47.466;9.094;2022-12-29T09:38:57;1.65;;;1.55;;
46455;SDS011;64052;47.466;9.094;2022-12-29T09:44:02;2.75;;;1.90;;
46455;SDS011;64052;47.466;9.094;2022-12-29T09:49:16;2.58;;;1.70;;
46455;SDS011;64052;47.466;9.094;2022-12-29T09:54:39;1.20;;;1.10;;
46455;SDS011;64052;47.466;9.094;2022-12-29T10:00:03;1.13;;;0.93;;
46455;SDS011;64052;47.466;9.094;2022-12-29T10:05:19;3.40;;;1.42;;
46455;SDS011;64052;47.466;9.094;2022-12-29T10:10:43;1.98;;;1.40;;
46455;SDS011;64052;47.466;9.094;2022-12-29T10:21:28;1.58;;;1.30;;
46455;SDS011;64052;47.466;9.094;2022-12-29T10:26:46;2.00;;;1.30;;
46455;SDS011;64052;47.466;9.094;2022-12-29T10:31:55;1.95;;;1.60;;
46455;SDS011;64052;47.466;9.094;2022-12-29T10:37:02;2.00;;;1.38;;
46455;SDS011;64052;47.466;9.094;2022-12-29T10:42:13;2.00;;;1.45;;
46455;SDS011;64052;47.466;9.094;2022-12-29T10:47:24;1.80;;;1.45;;
46455;SDS011;64052;47.466;9.094;2022-12-29T10:52:30;2.03;;;1.50;;
46455;SDS011;64052;47.466;9.094;2022-12-29T10:57:38;3.17;;;1.40;;
46455;SDS011;64052;47.466;9.094;2022-12-29T11:08:08;3.03;;;2.60;;
46455;SDS011;64052;47.466;9.094;2022-12-29T11:18:35;1.80;;;1.70;;
46455;SDS011;64052;47.466;9.094;2022-12-29T11:23:39;2.90;;;1.40;;
46455;SDS011;64052;47.466;9.094;2022-12-29T11:29:04;1.92;;;1.38;;
46455;SDS011;64052;47.466;9.094;2022-12-29T11:34:32;2.75;;;1.40;;
46455;SDS011;64052;47.466;9.094;2022-12-29T11:39:40;1.83;;;1.40;;
46455;SDS011;64052;47.466;9.094;2022-12-29T11:44:48;2.33;;;1.50;;
46455;SDS011;64052;47.466;9.094;2022-12-29T11:49:52;2.10;;;1.45;;
46455;SDS011;64052;47.466;9.094;2022-12-29T11:54:56;1.67;;;1.23;;
46455;SDS011;64052;47.466;9.094;2022-12-29T11:59:59;2.75;;;1.05;;
46455;SDS011;64052;47.466;9.094;2022-12-29T12:10:21;2.20;;;1.30;;
46455;SDS011;64052;47.466;9.094;2022-12-29T12:15:31;1.67;;;1.10;;
46455;SDS011;64052;47.466;9.094;2022-12-29T12:31:31;1.58;;;1.17;;
46455;SDS011;64052;47.466;9.094;2022-12-29T12:36:47;1.38;;;0.90;;
46455;SDS011;64052;47.466;9.094;2022-12-29T12:58:22;1.50;;;1.02;;
46455;SDS011;64052;47.466;9.094;2022-12-29T13:09:20;1.90;;;1.20;;
46455;SDS011;64052;47.466;9.094;2022-12-29T13:15:01;2.20;;;1.00;;
46455;SDS011;64052;47.466;9.094;2022-12-29T13:41:51;1.65;;;1.30;;
46455;SDS011;64052;47.466;9.094;2022-12-29T13:46:55;1.65;;;1.35;;
46455;SDS011;64052;47.466;9.094;2022-12-29T13:52:15;3.17;;;1.70;;
46455;SDS011;64052;47.466;9.094;2022-12-29T13:57:39;2.38;;;2.00;;
46455;SDS011;64052;47.466;9.094;2022-12-29T14:07:59;1.42;;;1.00;;
46455;SDS011;64052;47.466;9.094;2022-12-29T14:13:09;2.05;;;1.27;;
46455;SDS011;64052;47.466;9.094;2022-12-29T14:18:16;2.97;;;1.27;;
46455;SDS011;64052;47.466;9.094;2022-12-29T14:23:28;2.00;;;1.35;;
46455;SDS011;64052;47.466;9.094;2022-12-29T14:28:37;3.10;;;1.88;;
46455;SDS011;64052;47.466;9.094;2022-12-29T14:33:41;2.15;;;1.23;;
46455;SDS011;64052;47.466;9.094;2022-12-29T14:44:30;2.15;;;1.60;;
46455;SDS011;64052;47.466;9.094;2022-12-29T14:49:33;3.03;;;1.33;;
46455;SDS011;64052;47.466;9.094;2022-12-29T14:54:44;2.22;;;1.30;;
46455;SDS011;64052;47.466;9.094;2022-12-29T14:59:47;2.47;;;1.60;;
46455;SDS011;64052;47.466;9.094;2022-12-29T15:04:54;3.45;;;1.40;;
46455;SDS011;64052;47.466;9.094;2022-12-29T15:10:04;2.75;;;1.30;;
46455;SDS011;64052;47.466;9.094;2022-12-29T15:15:35;1.90;;;1.50;;
46455;SDS011;64052;47.466;9.094;2022-12-29T15:20:38;4.43;;;1.70;;
46455;SDS011;64052;47.466;9.094;2022-12-29T15:30:57;1.75;;;1.65;;
46455;SDS011;64052;47.466;9.094;2022-12-29T15:36:09;1.40;;;1.02;;
46455;SDS011;64052;47.466;9.094;2022-12-29T15:47:03;1.73;;;1.33;;
46455;SDS011;64052;47.466;9.094;2022-12-29T15:52:09;3.60;;;1.10;;
46455;SDS011;64052;47.466;9.094;2022-12-29T16:02:27;3.55;;;1.50;;
46455;SDS011;64052;47.466;9.094;2022-12-29T16:07:30;3.47;;;2.05;;
46455;SDS011;64052;47.466;9.094;2022-12-29T16:12:41;1.60;;;1.23;;
46455;SDS011;64052;47.466;9.094;2022-12-29T16:17:46;3.05;;;1.20;;
46455;SDS011;64052;47.466;9.094;2022-12-29T16:22:50;4.15;;;1.63;;
46455;SDS011;64052;47.466;9.094;2022-12-29T16:27:56;4.07;;;1.77;;
46455;SDS011;64052;47.466;9.094;2022-12-29T16:33:00;5.55;;;3.22;;
46455;SDS011;64052;47.466;9.094;2022-12-29T16:43:23;3.83;;;2.45;;
46455;SDS011;64052;47.466;9.094;2022-12-29T16:53:34;3.17;;;2.60;;
46455;SDS011;64052;47.466;9.094;2022-12-29T16:58:44;4.53;;;2.50;;
46455;SDS011;64052;47.466;9.094;2022-12-29T17:03:54;6.10;;;2.58;;
46455;SDS011;64052;47.466;9.094;2022-12-29T17:09:25;15.63;;;12.70;;
46455;SDS011;64052;47.466;9.094;2022-12-29T17:14:39;6.93;;;4.35;;
46455;SDS011;64052;47.466;9.094;2022-12-29T17:25:49;5.85;;;3.72;;
46455;SDS011;64052;47.466;9.094;2022-12-29T17:31:04;8.10;;;4.15;;
46455;SDS011;64052;47.466;9.094;2022-12-29T17:36:18;5.82;;;2.35;;
46455;SDS011;64052;47.466;9.094;2022-12-29T17:41:22;3.50;;;2.00;;
46455;SDS011;64052;47.466;9.094;2022-12-29T17:46:26;4.35;;;2.92;;
46455;SDS011;64052;47.466;9.094;2022-12-29T17:51:29;4.93;;;4.32;;
46455;SDS011;64052;47.466;9.094;2022-12-29T17:56:34;6.65;;;4.90;;
46455;SDS011;64052;47.466;9.094;2022-12-29T18:01:36;8.98;;;7.00;;
46455;SDS011;64052;47.466;9.094;2022-12-29T18:06:46;8.13;;;5.07;;
46455;SDS011;64052;47.466;9.094;2022-12-29T18:11:51;8.43;;;6.45;;
46455;SDS011;64052;47.466;9.094;2022-12-29T18:16:57;5.88;;;5.28;;
46455;SDS011;64052;47.466;9.094;2022-12-29T18:22:08;5.95;;;4.95;;
46455;SDS011;64052;47.466;9.094;2022-12-29T18:27:14;6.15;;;4.68;;
46455;SDS011;64052;47.466;9.094;2022-12-29T18:32:16;6.53;;;5.53;;
46455;SDS011;64052;47.466;9.094;2022-12-29T18:37:19;8.55;;;6.40;;
46455;SDS011;64052;47.466;9.094;2022-12-29T18:42:21;4.45;;;3.67;;
46455;SDS011;64052;47.466;9.094;2022-12-29T18:47:23;4.57;;;3.30;;
46455;SDS011;64052;47.466;9.094;2022-12-29T18:52:24;4.05;;;3.67;;
46455;SDS011;64052;47.466;9.094;2022-12-29T18:57:26;4.38;;;3.50;;
46455;SDS011;64052;47.466;9.094;2022-12-29T19:02:28;3.70;;;3.15;;
46455;SDS011;64052;47.466;9.094;2022-12-29T19:07:31;4.13;;;3.15;;
46455;SDS011;64052;47.466;9.094;2022-12-29T19:12:33;2.63;;;1.58;;
46455;SDS011;64052;47.466;9.094;2022-12-29T19:17:34;2.85;;;2.20;;
46455;SDS011;64052;47.466;9.094;2022-12-29T19:22:36;1.85;;;1.73;;
46455;SDS011;64052;47.466;9.094;2022-12-29T19:27:38;4.80;;;3.30;;
46455;SDS011;64052;47.466;9.094;2022-12-29T19:32:40;2.28;;;1.70;;
46455;SDS011;64052;47.466;9.094;2022-12-29T19:37:42;2.65;;;1.85;;
46455;SDS011;64052;47.466;9.094;2022-12-29T19:42:44;2.28;;;2.08;;
46455;SDS011;64052;47.466;9.094;2022-12-29T19:47:46;2.45;;;2.22;;
46455;SDS011;64052;47.466;9.094;2022-12-29T19:52:50;2.75;;;2.20;;
46455;SDS011;64052;47.466;9.094;2022-12-29T19:58:04;4.38;;;2.20;;
46455;SDS011;64052;47.466;9.094;2022-12-29T20:03:06;2.80;;;2.22;;
46455;SDS011;64052;47.466;9.094;2022-12-29T20:08:08;2.15;;;1.90;;
46455;SDS011;64052;47.466;9.094;2022-12-29T20:13:09;3.10;;;2.25;;
46455;SDS011;64052;47.466;9.094;2022-12-29T20:18:11;2.85;;;2.50;;
46455;SDS011;64052;47.466;9.094;2022-12-29T20:23:15;3.78;;;2.20;;
46455;SDS011;64052;47.466;9.094;2022-12-29T20:28:16;4.05;;;3.65;;
46455;SDS011;64052;47.466;9.094;2022-12-29T20:33:18;2.97;;;2.17;;
46455;SDS011;64052;47.466;9.094;2022-12-29T20:38:20;2.17;;;1.98;;
46455;SDS011;64052;47.466;9.094;2022-12-29T20:43:21;3.10;;;2.20;;
46455;SDS011;64052;47.466;9.094;2022-12-29T20:48:23;3.47;;;2.10;;
46455;SDS011;64052;47.466;9.094;2022-12-29T20:53:25;4.97;;;2.10;;
46455;SDS011;64052;47.466;9.094;2022-12-29T20:58:27;1.90;;;1.80;;
46455;SDS011;64052;47.466;9.094;2022-12-29T21:03:29;2.20;;;1.63;;
46455;SDS011;64052;47.466;9.094;2022-12-29T21:08:31;3.20;;;2.50;;
46455;SDS011;64052;47.466;9.094;2022-12-29T21:13:33;2.25;;;1.80;;
46455;SDS011;64052;47.466;9.094;2022-12-29T21:18:35;2.30;;;2.10;;
46455;SDS011;64052;47.466;9.094;2022-12-29T21:23:37;2.20;;;1.80;;
46455;SDS011;64052;47.466;9.094;2022-12-29T21:28:40;2.80;;;1.67;;
46455;SDS011;64052;47.466;9.094;2022-12-29T21:33:42;2.10;;;1.90;;
46455;SDS011;64052;47.466;9.094;2022-12-29T21:38:43;2.65;;;1.58;;
46455;SDS011;64052;47.466;9.094;2022-12-29T21:43:45;2.67;;;1.70;;
46455;SDS011;64052;47.466;9.094;2022-12-29T21:48:48;2.60;;;1.95;;
46455;SDS011;64052;47.466;9.094;2022-12-29T21:53:57;1.40;;;1.30;;
46455;SDS011;64052;47.466;9.094;2022-12-29T21:59:00;2.20;;;1.75;;
46455;SDS011;64052;47.466;9.094;2022-12-29T22:04:02;3.15;;;2.00;;
46455;SDS011;64052;47.466;9.094;2022-12-29T22:09:05;2.55;;;1.70;;
46455;SDS011;64052;47.466;9.094;2022-12-29T22:14:06;2.17;;;1.60;;
46455;SDS011;64052;47.466;9.094;2022-12-29T22:19:08;1.77;;;1.67;;
46455;SDS011;64052;47.466;9.094;2022-12-29T22:24:10;1.50;;;1.33;;
46455;SDS011;64052;47.466;9.094;2022-12-29T22:29:14;1.70;;;1.50;;
46455;SDS011;64052;47.466;9.094;2022-12-29T22:34:16;1.73;;;1.42;;
46455;SDS011;64052;47.466;9.094;2022-12-29T22:39:19;1.67;;;1.55;;
46455;SDS011;64052;47.466;9.094;2022-12-29T22:44:21;3.88;;;1.63;;
46455;SDS011;64052;47.466;9.094;2022-12-29T22:49:24;1.60;;;1.50;;
46455;SDS011;64052;47.466;9.094;2022-12-29T22:54:26;1.73;;;1.58;;
46455;SDS011;64052;47.466;9.094;2022-12-29T22:59:28;2.22;;;2.00;;
46455;SDS011;64052;47.466;9.094;2022-12-29T23:04:29;2.60;;;1.25;;
46455;SDS011;64052;47.466;9.094;2022-12-29T23:09:51;1.42;;;1.25;;
46455;SDS011;64052;47.466;9.094;2022-12-29T23:14:53;1.65;;;1.00;;
46455;SDS011;64052;47.466;9.094;2022-12-29T23:19:55;1.05;;;0.95;;
46455;SDS011;64052;47.466;9.094;2022-12-29T23:24:56;1.23;;;1.00;;
46455;SDS011;64052;47.466;9.094;2022-12-29T23:29:58;1.08;;;0.95;;
46455;SDS011;64052;47.466;9.094;2022-12-29T23:35:00;2.38;;;0.95;;
46455;SDS011;64052;47.466;9.094;2022-12-29T23:40:02;0.70;;;0.70;;
46455;SDS011;64052;47.466;9.094;2022-12-29T23:45:04;0.70;;;0.70;;
46455;SDS011;64052;47.466;9.094;2022-12-29T23:50:06;0.73;;;0.73;;
46455;SDS011;64052;47.466;9.094;2022-12-29T23:55:09;0.60;;;0.60;;
